Terminal Aerodrome Forecast
Issued by NWS Louisville, KY

Home | Current Version | Previous Version | Graphics & Text | Print | Product List | Glossary On
Versions: 1 2 3 4 5 6 7 8 9 10 11 12 13 14 15
000
FTUS43 KLMK 272300
TAFSDF
TAF
KSDF 272323Z 2800/0106 04006KT P6SM BKN090
     FM280800 06006KT P6SM BKN050
     FM281600 09007KT P6SM FEW020 BKN060=

USA.gov is the U.S. government's official web portal to all federal, state and local government web resources and services.